createdAt,value
2022-12-23T00:01:38.080Z,101323.22
2022-12-23T00:04:05.343Z,101313.38
2022-12-23T00:06:32.528Z,101298.38
2022-12-23T00:08:59.973Z,101289.66
2022-12-23T00:11:28.090Z,101285.34
2022-12-23T00:14:20.504Z,101296.00
2022-12-23T00:16:50.162Z,101320.53
2022-12-23T00:19:17.524Z,101317.78
2022-12-23T00:21:44.625Z,101322.06
2022-12-23T00:24:12.162Z,101320.41
2022-12-23T00:26:39.518Z,101336.88
2022-12-23T00:29:07.294Z,101344.94
2022-12-23T00:31:34.403Z,101333.41
2022-12-23T00:34:01.599Z,101331.66
2022-12-23T00:36:30.403Z,101308.56
2022-12-23T00:39:17.892Z,101301.72
2022-12-23T00:42:03.710Z,101294.09
2022-12-23T00:44:30.869Z,101289.78
2022-12-23T00:46:58.274Z,101311.69
2022-12-23T00:49:43.627Z,101315.19
2022-12-23T00:52:14.061Z,101319.56
2022-12-23T00:54:41.434Z,101331.56
2022-12-23T00:57:08.517Z,101328.66
2022-12-23T00:59:35.827Z,101330.13
2022-12-23T01:02:21.234Z,101338.84
2022-12-23T01:05:06.813Z,101349.47
2022-12-23T01:07:33.941Z,101342.50
2022-12-23T01:10:01.064Z,101331.91
2022-12-23T01:12:28.193Z,101337.69
2022-12-23T01:14:55.283Z,101338.78
2022-12-23T01:17:22.531Z,101336.94
2022-12-23T01:19:49.783Z,101336.28
2022-12-23T01:22:16.954Z,101333.88
2022-12-23T01:24:44.036Z,101336.66
2022-12-23T01:27:11.156Z,101351.56
2022-12-23T01:29:38.294Z,101365.53
2022-12-23T01:32:05.505Z,101366.41
2022-12-23T01:34:36.702Z,101354.31
2022-12-23T01:37:05.024Z,101354.22
2022-12-23T01:39:32.138Z,101375.34
2022-12-23T01:42:17.559Z,101385.19
2022-12-23T01:45:02.044Z,101346.53
2022-12-23T01:47:36.086Z,101375.56
2022-12-23T01:50:09.645Z,101373.84
2022-12-23T01:52:45.639Z,101367.81
2022-12-23T01:55:17.185Z,101354.63
2022-12-23T01:57:45.472Z,101341.53
2022-12-23T02:00:32.795Z,101326.78
2022-12-23T02:03:18.213Z,101339.84
2022-12-23T02:05:46.240Z,101346.94
2022-12-23T02:08:34.391Z,101349.56
2022-12-23T02:11:18.265Z,101349.69
2022-12-23T02:14:10.552Z,101361.06
2022-12-23T02:16:49.503Z,101358.72
2022-12-23T02:19:53.883Z,101359.66
2022-12-23T02:22:20.943Z,101351.97
2022-12-23T02:25:05.439Z,101348.22
2022-12-23T02:27:48.473Z,101348.91
2022-12-23T02:30:30.225Z,101340.06
2022-12-23T02:33:09.296Z,101340.97
2022-12-23T02:36:01.304Z,101344.53
2022-12-23T02:38:35.586Z,101338.34
2022-12-23T02:41:13.608Z,101329.34
2022-12-23T02:43:50.286Z,101322.44
2022-12-23T02:46:30.754Z,101316.44
2022-12-23T02:49:03.868Z,101308.38
2022-12-23T02:51:36.794Z,101318.19
2022-12-23T02:54:09.080Z,101318.19
2022-12-23T02:56:39.543Z,101308.56
2022-12-23T02:59:12.540Z,101315.56
2022-12-23T03:01:41.272Z,101314.00
2022-12-23T03:04:09.022Z,101303.53
2022-12-23T03:06:40.652Z,101307.09
2022-12-23T03:09:08.267Z,101297.59
2022-12-23T03:12:03.267Z,101292.19
2022-12-23T03:14:48.240Z,101285.94
2022-12-23T03:17:15.270Z,101284.03
2022-12-23T03:20:02.786Z,101279.66
2022-12-23T03:22:46.672Z,101286.59
2022-12-23T03:25:38.941Z,101295.41
2022-12-23T03:28:18.599Z,101299.81
2022-12-23T03:30:51.673Z,101293.72
2022-12-23T03:33:24.089Z,101280.44
2022-12-23T03:36:01.197Z,101288.44
2022-12-23T03:38:31.545Z,101288.44
2022-12-23T03:41:05.156Z,101288.25
2022-12-23T03:44:04.340Z,101288.97
2022-12-23T03:46:39.115Z,101281.28
2022-12-23T03:49:11.961Z,101277.75
2022-12-23T03:51:55.542Z,101280.16
2022-12-23T03:54:36.957Z,101287.13
2022-12-23T03:57:07.324Z,101290.81
2022-12-23T03:59:41.119Z,101293.16
2022-12-23T04:02:18.190Z,101293.94
2022-12-23T04:05:00.516Z,101284.13
2022-12-23T04:08:11.734Z,101282.94
2022-12-23T04:10:39.149Z,101279.16
2022-12-23T04:13:06.469Z,101267.72
2022-12-23T04:15:38.231Z,101265.09
2022-12-23T04:18:05.432Z,101266.03
2022-12-23T04:20:32.523Z,101268.84
2022-12-23T04:22:59.628Z,101278.38
2022-12-23T04:25:26.722Z,101278.63
2022-12-23T04:27:53.840Z,101275.81
2022-12-23T04:30:21.070Z,101283.00
2022-12-23T04:32:48.152Z,101275.09
2022-12-23T04:35:15.561Z,101296.44
2022-12-23T04:37:42.674Z,101311.31
2022-12-23T04:40:09.989Z,101316.78
2022-12-23T04:42:37.805Z,101316.84
2022-12-23T04:45:05.426Z,101303.09
2022-12-23T04:47:32.687Z,101293.50
2022-12-23T04:49:59.770Z,101291.09
2022-12-23T04:52:27.042Z,101299.06
2022-12-23T04:54:54.125Z,101306.34
2022-12-23T04:57:21.267Z,101296.84
2022-12-23T04:59:48.403Z,101292.47
2022-12-23T05:02:15.662Z,101301.44
2022-12-23T05:04:42.994Z,101315.53
2022-12-23T05:07:10.156Z,101325.25
2022-12-23T05:09:37.219Z,101332.53
2022-12-23T05:12:04.393Z,101329.69
2022-12-23T05:14:31.506Z,101322.09
2022-12-23T05:17:03.589Z,101310.00
2022-12-23T05:19:34.129Z,101305.09
2022-12-23T05:22:01.460Z,101302.03
2022-12-23T05:24:28.602Z,101310.03
2022-12-23T05:26:59.712Z,101302.63
2022-12-23T05:29:27.945Z,101305.16
2022-12-23T05:31:55.213Z,101307.13
2022-12-23T05:34:22.347Z,101309.91
2022-12-23T05:36:49.517Z,101311.84
2022-12-23T05:39:16.614Z,101323.09
2022-12-23T05:41:43.817Z,101333.88
2022-12-23T05:44:10.965Z,101330.50
2022-12-23T05:46:38.159Z,101326.81
2022-12-23T05:49:05.373Z,101321.69
2022-12-23T05:51:32.455Z,101325.03
2022-12-23T05:53:59.596Z,101319.03
2022-12-23T05:56:26.686Z,101304.44
2022-12-23T05:58:53.953Z,101318.25
2022-12-23T06:01:21.046Z,101325.16
2022-12-23T06:03:48.221Z,101324.38
2022-12-23T06:06:15.421Z,101330.25
2022-12-23T06:08:42.583Z,101332.88
2022-12-23T06:11:09.724Z,101332.97
2022-12-23T06:13:36.799Z,101334.69
2022-12-23T06:16:04.389Z,101341.66
2022-12-23T06:18:31.536Z,101345.16
2022-12-23T06:20:58.616Z,101349.53
2022-12-23T06:23:25.704Z,101352.16
2022-12-23T06:25:59.959Z,101355.72
2022-12-23T06:28:27.654Z,101355.53
2022-12-23T06:30:55.808Z,101331.84
2022-12-23T06:33:24.115Z,101321.31
2022-12-23T06:35:51.296Z,101316.03
2022-12-23T06:38:18.455Z,101324.84
2022-12-23T06:40:45.559Z,101334.50
2022-12-23T06:43:13.473Z,101334.50
2022-12-23T06:45:41.041Z,101328.28
2022-12-23T06:48:08.233Z,101332.13
2022-12-23T06:50:35.347Z,101339.84
2022-12-23T06:53:02.418Z,101355.63
2022-12-23T06:55:29.600Z,101352.16
2022-12-23T06:57:56.652Z,101354.94
2022-12-23T07:00:23.918Z,101358.25
2022-12-23T07:02:53.642Z,101358.94
2022-12-23T07:05:20.941Z,101363.19
2022-12-23T07:07:48.131Z,101363.09
2022-12-23T07:10:15.651Z,101361.28
2022-12-23T07:12:49.004Z,101355.97
2022-12-23T07:15:17.867Z,101354.88
2022-12-23T07:17:44.953Z,101360.13
2022-12-23T07:20:13.510Z,101358.69
2022-12-23T07:22:40.637Z,101366.53
2022-12-23T07:25:08.488Z,101364.88
2022-12-23T07:27:35.681Z,101361.38
2022-12-23T07:30:03.243Z,101345.59
2022-12-23T07:32:30.379Z,101353.59
2022-12-23T07:34:57.461Z,101362.63
2022-12-23T07:37:24.600Z,101359.38
2022-12-23T07:39:51.697Z,101364.66
2022-12-23T07:42:44.846Z,101354.97
2022-12-23T07:45:06.768Z,101355.84
2022-12-23T07:47:33.932Z,101362.03
2022-12-23T07:50:09.449Z,101355.75
2022-12-23T07:52:36.690Z,101361.00
2022-12-23T07:55:05.332Z,101380.88
2022-12-23T07:57:38.210Z,101378.22
2022-12-23T08:00:15.732Z,101377.97
2022-12-23T08:02:43.317Z,101387.63
2022-12-23T08:05:11.528Z,101393.41
2022-12-23T08:07:38.950Z,101403.56
2022-12-23T08:10:07.203Z,101397.91
2022-12-23T08:12:34.352Z,101392.63
2022-12-23T08:15:01.509Z,101392.13
2022-12-23T08:17:30.374Z,101385.69
2022-12-23T08:19:57.602Z,101395.88
2022-12-23T08:22:24.907Z,101394.53
2022-12-23T08:24:52.626Z,101398.34
2022-12-23T08:27:19.860Z,101397.91
2022-12-23T08:29:46.978Z,101394.94
2022-12-23T08:32:14.063Z,101380.00
2022-12-23T08:34:41.134Z,101380.91
2022-12-23T08:37:08.227Z,101375.59
2022-12-23T08:39:35.653Z,101371.84
2022-12-23T08:42:02.753Z,101359.69
2022-12-23T08:44:31.004Z,101377.81
2022-12-23T08:46:58.140Z,101396.91
2022-12-23T08:49:25.294Z,101392.72
2022-12-23T08:51:52.467Z,101388.25
2022-12-23T08:54:20.387Z,101382.84
2022-12-23T08:56:47.811Z,101375.88
2022-12-23T08:59:19.468Z,101375.66
2022-12-23T09:01:48.087Z,101384.13
2022-12-23T09:04:15.723Z,101376.78
2022-12-23T09:06:43.605Z,101395.59
2022-12-23T09:09:14.218Z,101392.69
2022-12-23T09:11:41.841Z,101386.09
2022-12-23T09:14:10.128Z,101395.09
2022-12-23T09:16:37.774Z,101397.66
2022-12-23T09:19:05.067Z,101392.84
2022-12-23T09:21:32.285Z,101396.78
2022-12-23T09:23:59.340Z,101391.44
2022-12-23T09:26:29.252Z,101400.72
2022-12-23T09:28:56.975Z,101398.53
2022-12-23T09:31:26.717Z,101393.63
2022-12-23T09:33:56.561Z,101391.59
2022-12-23T09:36:23.625Z,101385.91
2022-12-23T09:38:54.823Z,101376.66
2022-12-23T09:42:01.257Z,101378.66
2022-12-23T09:45:05.816Z,101385.53
2022-12-23T09:47:34.001Z,101368.66
2022-12-23T09:50:10.505Z,101373.94
2022-12-23T09:52:54.599Z,101369.00
2022-12-23T09:55:23.821Z,101361.97
2022-12-23T09:58:03.627Z,101357.84
2022-12-23T10:00:48.876Z,101366.72
2022-12-23T10:03:21.784Z,101360.19
2022-12-23T10:06:18.881Z,101362.41
2022-12-23T10:08:54.385Z,101370.91
2022-12-23T10:11:25.886Z,101365.31
2022-12-23T10:14:09.986Z,101375.78
2022-12-23T10:16:42.957Z,101371.56
2022-12-23T10:19:16.747Z,101375.06
2022-12-23T10:21:48.446Z,101372.69
2022-12-23T10:24:25.924Z,101362.75
2022-12-23T10:26:54.623Z,101368.41
2022-12-23T10:29:24.098Z,101369.19
2022-12-23T10:32:00.161Z,101364.06
2022-12-23T10:34:41.434Z,101366.75
2022-12-23T10:37:31.571Z,101361.59
2022-12-23T10:40:23.205Z,101351.75
2022-12-23T10:43:15.295Z,101351.41
2022-12-23T10:46:10.443Z,101348.66
2022-12-23T10:49:05.094Z,101355.47
2022-12-23T10:51:47.474Z,101358.78
2022-12-23T10:54:21.383Z,101363.84
2022-12-23T10:56:48.683Z,101353.19
2022-12-23T10:59:23.270Z,101354.81
2022-12-23T11:01:58.437Z,101344.84
2022-12-23T11:04:34.549Z,101345.16
2022-12-23T11:07:41.495Z,101336.88
2022-12-23T11:10:13.132Z,101324.13
2022-12-23T11:12:43.921Z,101320.59
2022-12-23T11:15:32.956Z,101336.13
2022-12-23T11:18:07.039Z,101340.28
2022-12-23T11:20:36.217Z,101345.31
2022-12-23T11:23:05.812Z,101361.81
2022-12-23T11:25:32.861Z,101372.41
2022-12-23T11:28:22.047Z,101378.88
2022-12-23T11:30:58.676Z,101362.97
2022-12-23T11:33:28.458Z,101366.63
2022-12-23T11:36:13.438Z,101366.06
2022-12-23T11:38:55.468Z,101350.06
2022-12-23T11:41:27.140Z,101362.28
2022-12-23T11:44:20.683Z,101349.56
2022-12-23T11:46:47.908Z,101335.25
2022-12-23T11:49:22.926Z,101334.41
2022-12-23T11:52:16.936Z,101329.53
2022-12-23T11:54:55.519Z,101311.66
2022-12-23T11:57:32.703Z,101278.34
2022-12-23T12:00:06.384Z,101273.34
2022-12-23T12:02:39.556Z,101257.34
2022-12-23T12:05:25.273Z,101244.97
2022-12-23T12:07:52.893Z,101244.97
2022-12-23T12:10:28.303Z,101232.97
2022-12-23T12:12:58.119Z,101218.44
2022-12-23T12:15:35.643Z,101216.81
2022-12-23T12:18:10.098Z,101240.06
2022-12-23T12:20:41.886Z,101259.09
2022-12-23T12:23:21.165Z,101274.28
2022-12-23T12:26:06.003Z,101267.63
2022-12-23T12:28:38.698Z,101278.69
2022-12-23T12:31:28.103Z,101278.53
2022-12-23T12:33:57.911Z,101260.28
2022-12-23T12:36:36.748Z,101250.63
2022-12-23T12:39:21.169Z,101251.50
2022-12-23T12:41:52.609Z,101253.91
2022-12-23T12:44:25.386Z,101254.38
2022-12-23T12:47:04.128Z,101261.59
2022-12-23T12:50:00.115Z,101264.84
2022-12-23T12:52:27.862Z,101268.72
2022-12-23T12:55:03.949Z,101261.47
2022-12-23T12:57:34.859Z,101260.50
2022-12-23T13:00:06.518Z,101221.88
2022-12-23T13:02:40.060Z,101196.34
2022-12-23T13:05:32.302Z,101210.09
2022-12-23T13:08:14.551Z,101212.44
2022-12-23T13:10:47.355Z,101220.72
2022-12-23T13:13:18.175Z,101227.19
2022-12-23T13:16:16.484Z,101229.19
2022-12-23T13:19:06.665Z,101223.00
2022-12-23T13:21:59.433Z,101219.22
2022-12-23T13:24:36.674Z,101228.03
2022-12-23T13:27:35.015Z,101226.31
2022-12-23T13:30:04.318Z,101227.78
2022-12-23T13:33:06.884Z,101220.56
2022-12-23T13:35:48.977Z,101233.31
2022-12-23T13:38:54.432Z,101224.31
2022-12-23T13:41:30.160Z,101212.94
2022-12-23T13:44:02.547Z,101221.75
2022-12-23T13:46:32.798Z,101228.47
2022-12-23T13:49:05.583Z,101238.13
2022-12-23T13:51:51.319Z,101238.84
2022-12-23T13:54:37.058Z,101250.09
2022-12-23T13:57:36.324Z,101257.22
2022-12-23T14:00:19.290Z,101242.94
2022-12-23T14:03:05.872Z,101241.22
2022-12-23T14:05:34.632Z,101237.38
2022-12-23T14:08:06.504Z,101238.69
2022-12-23T14:10:35.462Z,101247.47
2022-12-23T14:13:08.709Z,101246.63
2022-12-23T14:15:58.084Z,101261.84
2022-12-23T14:18:53.301Z,101262.78
2022-12-23T14:21:43.257Z,101261.66
2022-12-23T14:24:43.127Z,101272.22
2022-12-23T14:27:24.315Z,101277.91
2022-12-23T14:30:13.293Z,101268.47
2022-12-23T14:32:57.511Z,101260.97
2022-12-23T14:35:40.220Z,101262.56
2022-12-23T14:38:30.908Z,101261.97
2022-12-23T14:41:19.478Z,101265.97
2022-12-23T14:43:46.549Z,101260.63
2022-12-23T14:46:35.196Z,101256.19
2022-12-23T14:52:57.163Z,101267.91
2022-12-23T14:55:32.600Z,101272.16
2022-12-23T14:58:12.612Z,101255.88
2022-12-23T15:01:12.322Z,101255.88
2022-12-23T15:03:46.252Z,101247.31
2022-12-23T15:06:30.928Z,101240.66
2022-12-23T15:08:59.356Z,101243.28
2022-12-23T15:11:31.684Z,101248.56
2022-12-23T15:14:03.414Z,101248.97
2022-12-23T15:16:40.316Z,101246.97
2022-12-23T15:19:25.870Z,101259.59
2022-12-23T15:22:17.908Z,101258.16
2022-12-23T15:24:49.625Z,101255.50
2022-12-23T15:27:27.201Z,101272.59
2022-12-23T15:29:55.581Z,101267.13
2022-12-23T15:32:24.627Z,101264.63
2022-12-23T15:34:54.812Z,101260.84
2022-12-23T15:37:27.665Z,101248.88
2022-12-23T15:40:04.547Z,101248.50
2022-12-23T15:42:38.353Z,101236.63
2022-12-23T15:45:23.674Z,101242.50
2022-12-23T15:47:51.038Z,101234.94
2022-12-23T15:50:19.087Z,101228.84
2022-12-23T15:52:48.888Z,101220.59
2022-12-23T15:55:31.480Z,101234.94
2022-12-23T15:58:00.017Z,101233.03
2022-12-23T16:00:31.284Z,101227.66
2022-12-23T16:03:01.019Z,101228.66
2022-12-23T16:05:38.657Z,101233.22
2022-12-23T16:08:10.563Z,101232.59
2022-12-23T16:10:38.515Z,101231.75
2022-12-23T16:13:20.152Z,101239.69
2022-12-23T16:15:47.410Z,101241.81
2022-12-23T16:18:25.449Z,101236.34
2022-12-23T16:20:56.715Z,101235.66
2022-12-23T16:23:29.223Z,101227.81
2022-12-23T16:26:00.305Z,101232.16
2022-12-23T16:28:38.496Z,101217.16
2022-12-23T16:31:07.329Z,101204.91
2022-12-23T16:33:58.708Z,101198.63
2022-12-23T16:36:28.842Z,101208.66
2022-12-23T16:39:00.441Z,101198.25
2022-12-23T16:41:27.548Z,101192.94
2022-12-23T16:43:54.959Z,101177.41
2022-12-23T16:46:23.324Z,101193.41
2022-12-23T16:48:59.266Z,101205.81
2022-12-23T16:51:27.985Z,101211.66
2022-12-23T16:53:56.992Z,101245.59
2022-12-23T16:56:28.097Z,101263.81
2022-12-23T16:58:55.315Z,101268.31
2022-12-23T17:01:27.447Z,101262.31
2022-12-23T17:03:55.834Z,101267.53
2022-12-23T17:06:24.020Z,101255.25
2022-12-23T17:08:53.028Z,101258.91
2022-12-23T17:11:25.235Z,101263.31
2022-12-23T17:13:55.321Z,101269.63
2022-12-23T17:16:25.325Z,101274.81
2022-12-23T17:18:53.114Z,101270.00
2022-12-23T17:21:26.227Z,101267.38
2022-12-23T17:23:56.766Z,101265.53
2022-12-23T17:26:24.039Z,101262.31
2022-12-23T17:28:51.158Z,101264.91
2022-12-23T17:31:26.747Z,101257.00
2022-12-23T17:33:54.605Z,101246.59
2022-12-23T17:36:21.847Z,101266.03
2022-12-23T17:38:49.037Z,101263.88
2022-12-23T17:41:24.085Z,101265.81
2022-12-23T17:43:51.251Z,101280.56
2022-12-23T17:46:18.404Z,101284.22
2022-12-23T17:48:47.025Z,101274.81
2022-12-23T17:51:16.929Z,101271.47
2022-12-23T17:53:44.865Z,101275.97
2022-12-23T17:56:20.124Z,101270.06
2022-12-23T17:58:49.522Z,101266.69
2022-12-23T18:01:22.168Z,101248.81
2022-12-23T18:03:49.327Z,101244.94
2022-12-23T18:06:18.741Z,101245.00
2022-12-23T18:08:46.248Z,101252.31
2022-12-23T18:11:41.953Z,101256.50
2022-12-23T18:14:16.171Z,101256.03
2022-12-23T18:16:43.367Z,101287.09
2022-12-23T18:19:17.582Z,101297.03
2022-12-23T18:21:45.392Z,101320.94
2022-12-23T18:24:12.751Z,101329.31
2022-12-23T18:26:40.027Z,101317.84
2022-12-23T18:29:07.182Z,101319.78
2022-12-23T18:31:37.252Z,101316.47
2022-12-23T18:34:04.570Z,101303.75
2022-12-23T18:36:35.659Z,101293.03
2022-12-23T18:39:02.838Z,101295.44
2022-12-23T18:41:29.910Z,101291.25
2022-12-23T18:43:56.984Z,101295.69
2022-12-23T18:46:24.255Z,101309.09
2022-12-23T18:48:51.738Z,101314.94
2022-12-23T18:51:21.010Z,101294.09
2022-12-23T18:53:48.713Z,101302.94
2022-12-23T18:56:19.167Z,101285.44
2022-12-23T18:58:47.208Z,101262.94
2022-12-23T19:01:16.548Z,101248.00
2022-12-23T19:03:44.219Z,101258.66
2022-12-23T19:06:13.836Z,101249.63
2022-12-23T19:08:42.617Z,101254.84
2022-12-23T19:11:14.712Z,101273.75
2022-12-23T19:13:41.887Z,101296.91
2022-12-23T19:16:13.951Z,101289.66
2022-12-23T19:18:41.333Z,101280.84
2022-12-23T19:21:09.233Z,101282.06
2022-12-23T19:23:37.132Z,101294.25
2022-12-23T19:26:06.124Z,101277.78
2022-12-23T19:28:33.581Z,101261.16
2022-12-23T19:31:00.833Z,101270.81
2022-12-23T19:33:27.963Z,101258.28
2022-12-23T19:35:55.085Z,101254.75
2022-12-23T19:38:22.161Z,101238.69
2022-12-23T19:40:57.525Z,101238.19
2022-12-23T19:43:24.653Z,101231.34
2022-12-23T19:46:03.208Z,101222.56
2022-12-23T19:48:31.075Z,101230.53
2022-12-23T19:51:17.087Z,101236.19
2022-12-23T19:53:46.024Z,101241.25
2022-12-23T19:56:15.584Z,101250.50
2022-12-23T19:58:44.178Z,101247.13
2022-12-23T20:01:22.442Z,101250.97
2022-12-23T20:03:50.872Z,101270.41
2022-12-23T20:06:21.509Z,101281.84
2022-12-23T20:08:49.138Z,101296.69
2022-12-23T20:11:18.900Z,101296.59
2022-12-23T20:13:47.127Z,101296.53
2022-12-23T20:16:14.447Z,101287.78
2022-12-23T20:18:41.565Z,101280.13
2022-12-23T20:21:08.694Z,101282.63
2022-12-23T20:23:36.161Z,101293.81
2022-12-23T20:26:04.397Z,101309.66
2022-12-23T20:28:31.790Z,101320.19
2022-12-23T20:31:09.420Z,101327.34
2022-12-23T20:33:38.556Z,101336.19
2022-12-23T20:36:07.001Z,101341.44
2022-12-23T20:38:35.620Z,101346.66
2022-12-23T20:41:05.435Z,101333.38
2022-12-23T20:43:34.613Z,101309.59
2022-12-23T20:46:02.681Z,101318.09
2022-12-23T20:48:34.047Z,101299.91
2022-12-23T20:51:10.433Z,101306.56
2022-12-23T20:53:39.005Z,101303.25
2022-12-23T20:56:09.463Z,101308.38
2022-12-23T20:58:55.801Z,101317.88
2022-12-23T21:01:38.103Z,101316.91
2022-12-23T21:04:11.748Z,101318.88
2022-12-23T21:06:39.685Z,101321.81
2022-12-23T21:09:08.957Z,101327.00
2022-12-23T21:11:39.226Z,101332.34
2022-12-23T21:14:07.726Z,101345.41
2022-12-23T21:16:36.790Z,101346.97
2022-12-23T21:19:05.049Z,101346.06
2022-12-23T21:21:32.206Z,101342.25
2022-12-23T21:24:01.550Z,101337.34
2022-12-23T21:26:30.686Z,101336.75
2022-12-23T21:28:59.628Z,101345.59
2022-12-23T21:31:28.887Z,101354.44
2022-12-23T21:33:56.511Z,101366.84
2022-12-23T21:36:26.770Z,101396.91
2022-12-23T21:38:54.005Z,101405.81
2022-12-23T21:41:24.328Z,101423.53
2022-12-23T21:43:52.103Z,101429.09
2022-12-23T21:46:21.944Z,101422.50
2022-12-23T21:48:50.050Z,101400.88
2022-12-23T21:51:18.540Z,101367.44
2022-12-23T21:53:47.805Z,101373.50
2022-12-23T21:56:17.938Z,101373.50
2022-12-23T21:58:45.923Z,101370.06
2022-12-23T22:01:20.724Z,101399.81
2022-12-23T22:03:49.883Z,101400.66
2022-12-23T22:06:22.491Z,101402.59
2022-12-23T22:08:51.648Z,101402.47
2022-12-23T22:11:21.467Z,101398.81
2022-12-23T22:13:48.803Z,101404.25
2022-12-23T22:16:18.384Z,101405.28
2022-12-23T22:18:46.455Z,101380.84
2022-12-23T22:21:16.346Z,101349.94
2022-12-23T22:23:43.704Z,101333.13
2022-12-23T22:26:17.501Z,101330.81
2022-12-23T22:28:47.537Z,101326.53
2022-12-23T22:31:14.670Z,101320.47
2022-12-23T22:33:41.858Z,101310.72
2022-12-23T22:36:13.673Z,101299.16
2022-12-23T22:38:41.255Z,101300.69
2022-12-23T22:41:08.965Z,101320.38
2022-12-23T22:43:36.553Z,101319.28
2022-12-23T22:46:04.160Z,101310.38
2022-12-23T22:48:31.576Z,101324.50
2022-12-23T22:51:13.377Z,101340.47
2022-12-23T22:53:40.523Z,101328.44
2022-12-23T22:56:08.591Z,101331.59
2022-12-23T22:58:35.667Z,101326.06
2022-12-23T23:01:03.540Z,101343.88
2022-12-23T23:03:31.923Z,101345.72
2022-12-23T23:06:03.751Z,101326.31
2022-12-23T23:08:31.505Z,101300.22
2022-12-23T23:11:00.553Z,101284.28
2022-12-23T23:13:31.248Z,101280.00
2022-12-23T23:15:59.425Z,101287.25
2022-12-23T23:18:27.699Z,101276.03
2022-12-23T23:20:54.949Z,101254.22
2022-12-23T23:23:22.232Z,101253.63
2022-12-23T23:25:49.381Z,101262.03
2022-12-23T23:28:16.531Z,101261.78
2022-12-23T23:30:43.646Z,101258.34
2022-12-23T23:33:11.054Z,101247.72
2022-12-23T23:35:38.269Z,101217.91
2022-12-23T23:38:05.760Z,101194.09
2022-12-23T23:40:32.977Z,101197.59
2022-12-23T23:43:00.106Z,101191.63
2022-12-23T23:45:27.856Z,101201.22
2022-12-23T23:47:55.462Z,101203.34
2022-12-23T23:50:23.048Z,101198.47
2022-12-23T23:52:50.155Z,101219.41
2022-12-23T23:55:17.361Z,101242.53
2022-12-23T23:57:44.461Z,101253.31
